sensor_id;sensor_type;location;lat;lon;timestamp;P1;durP1;ratioP1;P2;durP2;ratioP2
17052;SDS011;8643;48.824;11.422;2022-12-18T00:00:10;96.30;;;24.57;;
17052;SDS011;8643;48.824;11.422;2022-12-18T00:02:39;98.87;;;23.27;;
17052;SDS011;8643;48.824;11.422;2022-12-18T00:05:09;97.23;;;23.13;;
17052;SDS011;8643;48.824;11.422;2022-12-18T00:07:38;90.47;;;23.63;;
17052;SDS011;8643;48.824;11.422;2022-12-18T00:10:07;103.77;;;24.23;;
17052;SDS011;8643;48.824;11.422;2022-12-18T00:12:40;76.03;;;23.13;;
17052;SDS011;8643;48.824;11.422;2022-12-18T00:15:09;78.10;;;22.03;;
17052;SDS011;8643;48.824;11.422;2022-12-18T00:17:38;85.00;;;24.57;;
17052;SDS011;8643;48.824;11.422;2022-12-18T00:20:07;91.23;;;24.17;;
17052;SDS011;8643;48.824;11.422;2022-12-18T00:22:38;80.80;;;22.13;;
17052;SDS011;8643;48.824;11.422;2022-12-18T00:25:07;86.93;;;23.87;;
17052;SDS011;8643;48.824;11.422;2022-12-18T00:27:35;75.87;;;23.13;;
17052;SDS011;8643;48.824;11.422;2022-12-18T00:30:05;75.27;;;22.33;;
17052;SDS011;8643;48.824;11.422;2022-12-18T00:32:35;86.70;;;23.37;;
17052;SDS011;8643;48.824;11.422;2022-12-18T00:35:04;91.57;;;24.33;;
17052;SDS011;8643;48.824;11.422;2022-12-18T00:37:35;106.10;;;26.03;;
17052;SDS011;8643;48.824;11.422;2022-12-18T00:40:04;88.73;;;24.20;;
17052;SDS011;8643;48.824;11.422;2022-12-18T00:42:35;87.10;;;22.67;;
17052;SDS011;8643;48.824;11.422;2022-12-18T00:45:22;72.17;;;21.50;;
17052;SDS011;8643;48.824;11.422;2022-12-18T00:47:53;89.33;;;24.70;;
17052;SDS011;8643;48.824;11.422;2022-12-18T00:50:23;65.93;;;19.50;;
17052;SDS011;8643;48.824;11.422;2022-12-18T00:52:53;73.33;;;20.80;;
17052;SDS011;8643;48.824;11.422;2022-12-18T00:55:22;72.33;;;20.57;;
17052;SDS011;8643;48.824;11.422;2022-12-18T00:57:50;60.43;;;18.83;;
17052;SDS011;8643;48.824;11.422;2022-12-18T01:00:19;79.73;;;21.90;;
17052;SDS011;8643;48.824;11.422;2022-12-18T01:02:48;83.37;;;22.33;;
17052;SDS011;8643;48.824;11.422;2022-12-18T01:05:17;94.83;;;24.23;;
17052;SDS011;8643;48.824;11.422;2022-12-18T01:07:46;85.93;;;21.87;;
17052;SDS011;8643;48.824;11.422;2022-12-18T01:10:16;88.90;;;22.83;;
17052;SDS011;8643;48.824;11.422;2022-12-18T01:12:45;71.40;;;20.97;;
17052;SDS011;8643;48.824;11.422;2022-12-18T01:15:14;74.93;;;22.37;;
17052;SDS011;8643;48.824;11.422;2022-12-18T01:17:44;77.03;;;21.77;;
17052;SDS011;8643;48.824;11.422;2022-12-18T01:20:13;78.73;;;21.10;;
17052;SDS011;8643;48.824;11.422;2022-12-18T01:22:42;85.77;;;21.57;;
17052;SDS011;8643;48.824;11.422;2022-12-18T01:25:10;76.23;;;22.57;;
17052;SDS011;8643;48.824;11.422;2022-12-18T01:27:40;79.57;;;22.07;;
17052;SDS011;8643;48.824;11.422;2022-12-18T01:30:09;81.20;;;22.37;;
17052;SDS011;8643;48.824;11.422;2022-12-18T01:32:38;85.03;;;24.10;;
17052;SDS011;8643;48.824;11.422;2022-12-18T01:35:07;72.30;;;21.40;;
17052;SDS011;8643;48.824;11.422;2022-12-18T01:37:36;91.47;;;22.20;;
17052;SDS011;8643;48.824;11.422;2022-12-18T01:40:05;76.93;;;21.47;;
17052;SDS011;8643;48.824;11.422;2022-12-18T01:42:35;68.80;;;20.03;;
17052;SDS011;8643;48.824;11.422;2022-12-18T01:45:06;77.73;;;21.97;;
17052;SDS011;8643;48.824;11.422;2022-12-18T01:47:52;76.30;;;21.33;;
17052;SDS011;8643;48.824;11.422;2022-12-18T01:50:28;76.20;;;22.30;;
17052;SDS011;8643;48.824;11.422;2022-12-18T01:53:02;83.00;;;21.00;;
17052;SDS011;8643;48.824;11.422;2022-12-18T01:55:36;81.13;;;23.30;;
17052;SDS011;8643;48.824;11.422;2022-12-18T01:58:10;74.43;;;20.63;;
17052;SDS011;8643;48.824;11.422;2022-12-18T02:00:41;68.53;;;20.20;;
17052;SDS011;8643;48.824;11.422;2022-12-18T02:03:10;77.80;;;21.83;;
17052;SDS011;8643;48.824;11.422;2022-12-18T02:05:42;77.57;;;22.07;;
17052;SDS011;8643;48.824;11.422;2022-12-18T02:08:20;81.40;;;21.97;;
17052;SDS011;8643;48.824;11.422;2022-12-18T02:10:59;81.40;;;20.40;;
17052;SDS011;8643;48.824;11.422;2022-12-18T02:13:40;78.67;;;21.23;;
17052;SDS011;8643;48.824;11.422;2022-12-18T02:16:21;79.67;;;21.43;;
17052;SDS011;8643;48.824;11.422;2022-12-18T02:19:01;80.70;;;20.87;;
17052;SDS011;8643;48.824;11.422;2022-12-18T02:21:49;77.20;;;20.73;;
17052;SDS011;8643;48.824;11.422;2022-12-18T02:24:33;81.97;;;21.67;;
17052;SDS011;8643;48.824;11.422;2022-12-18T02:27:15;72.00;;;20.97;;
17052;SDS011;8643;48.824;11.422;2022-12-18T02:29:47;81.87;;;20.17;;
17052;SDS011;8643;48.824;11.422;2022-12-18T02:32:26;76.53;;;21.00;;
17052;SDS011;8643;48.824;11.422;2022-12-18T02:35:02;68.80;;;19.43;;
17052;SDS011;8643;48.824;11.422;2022-12-18T02:37:35;66.83;;;18.20;;
17052;SDS011;8643;48.824;11.422;2022-12-18T02:40:09;76.47;;;20.33;;
17052;SDS011;8643;48.824;11.422;2022-12-18T02:42:42;65.03;;;18.63;;
17052;SDS011;8643;48.824;11.422;2022-12-18T02:45:14;75.13;;;21.07;;
17052;SDS011;8643;48.824;11.422;2022-12-18T02:47:45;72.07;;;18.33;;
17052;SDS011;8643;48.824;11.422;2022-12-18T02:50:18;73.17;;;18.73;;
17052;SDS011;8643;48.824;11.422;2022-12-18T02:53:00;71.90;;;18.33;;
17052;SDS011;8643;48.824;11.422;2022-12-18T02:55:45;74.33;;;19.83;;
17052;SDS011;8643;48.824;11.422;2022-12-18T02:58:34;71.83;;;19.30;;
17052;SDS011;8643;48.824;11.422;2022-12-18T03:01:28;70.30;;;19.53;;
17052;SDS011;8643;48.824;11.422;2022-12-18T03:04:08;61.50;;;16.47;;
17052;SDS011;8643;48.824;11.422;2022-12-18T03:06:43;70.13;;;19.20;;
17052;SDS011;8643;48.824;11.422;2022-12-18T03:09:17;66.73;;;17.50;;
17052;SDS011;8643;48.824;11.422;2022-12-18T03:11:51;70.37;;;19.37;;
17052;SDS011;8643;48.824;11.422;2022-12-18T03:15:00;57.73;;;17.07;;
17052;SDS011;8643;48.824;11.422;2022-12-18T03:17:32;66.53;;;17.87;;
17052;SDS011;8643;48.824;11.422;2022-12-18T03:20:04;63.97;;;18.47;;
17052;SDS011;8643;48.824;11.422;2022-12-18T03:22:39;63.47;;;18.27;;
17052;SDS011;8643;48.824;11.422;2022-12-18T03:25:14;62.90;;;17.60;;
17052;SDS011;8643;48.824;11.422;2022-12-18T03:27:46;65.67;;;18.50;;
17052;SDS011;8643;48.824;11.422;2022-12-18T03:30:24;75.17;;;19.90;;
17052;SDS011;8643;48.824;11.422;2022-12-18T03:32:58;57.97;;;17.17;;
17052;SDS011;8643;48.824;11.422;2022-12-18T03:35:40;67.53;;;19.17;;
17052;SDS011;8643;48.824;11.422;2022-12-18T03:38:11;70.13;;;17.77;;
17052;SDS011;8643;48.824;11.422;2022-12-18T03:40:47;71.67;;;19.17;;
17052;SDS011;8643;48.824;11.422;2022-12-18T03:43:33;68.47;;;19.17;;
17052;SDS011;8643;48.824;11.422;2022-12-18T03:46:14;70.47;;;19.37;;
17052;SDS011;8643;48.824;11.422;2022-12-18T03:48:52;75.47;;;21.00;;
17052;SDS011;8643;48.824;11.422;2022-12-18T03:51:33;71.83;;;19.03;;
17052;SDS011;8643;48.824;11.422;2022-12-18T03:54:10;68.70;;;18.70;;
17052;SDS011;8643;48.824;11.422;2022-12-18T03:56:50;83.63;;;21.63;;
17052;SDS011;8643;48.824;11.422;2022-12-18T03:59:24;75.80;;;19.00;;
17052;SDS011;8643;48.824;11.422;2022-12-18T04:01:57;77.00;;;21.40;;
17052;SDS011;8643;48.824;11.422;2022-12-18T04:04:31;65.73;;;17.87;;
17052;SDS011;8643;48.824;11.422;2022-12-18T04:07:03;70.17;;;19.30;;
17052;SDS011;8643;48.824;11.422;2022-12-18T04:09:36;72.80;;;19.77;;
17052;SDS011;8643;48.824;11.422;2022-12-18T04:12:07;65.50;;;19.83;;
17052;SDS011;8643;48.824;11.422;2022-12-18T04:14:36;61.47;;;18.23;;
17052;SDS011;8643;48.824;11.422;2022-12-18T04:17:08;60.77;;;18.70;;
17052;SDS011;8643;48.824;11.422;2022-12-18T04:19:38;63.03;;;17.97;;
17052;SDS011;8643;48.824;11.422;2022-12-18T04:22:08;59.83;;;18.27;;
17052;SDS011;8643;48.824;11.422;2022-12-18T04:24:42;58.80;;;18.13;;
17052;SDS011;8643;48.824;11.422;2022-12-18T04:27:19;54.70;;;16.87;;
17052;SDS011;8643;48.824;11.422;2022-12-18T04:29:49;66.77;;;18.43;;
17052;SDS011;8643;48.824;11.422;2022-12-18T04:32:19;64.43;;;19.23;;
17052;SDS011;8643;48.824;11.422;2022-12-18T04:34:48;63.40;;;17.60;;
17052;SDS011;8643;48.824;11.422;2022-12-18T04:37:17;68.70;;;18.17;;
17052;SDS011;8643;48.824;11.422;2022-12-18T04:39:48;65.03;;;18.37;;
17052;SDS011;8643;48.824;11.422;2022-12-18T04:42:26;72.27;;;19.57;;
17052;SDS011;8643;48.824;11.422;2022-12-18T04:44:55;66.67;;;19.13;;
17052;SDS011;8643;48.824;11.422;2022-12-18T04:47:25;53.60;;;16.60;;
17052;SDS011;8643;48.824;11.422;2022-12-18T04:49:53;61.07;;;19.13;;
17052;SDS011;8643;48.824;11.422;2022-12-18T04:52:21;61.67;;;18.63;;
17052;SDS011;8643;48.824;11.422;2022-12-18T04:54:50;62.50;;;16.77;;
17052;SDS011;8643;48.824;11.422;2022-12-18T04:57:18;60.80;;;17.87;;
17052;SDS011;8643;48.824;11.422;2022-12-18T04:59:47;65.47;;;19.07;;
17052;SDS011;8643;48.824;11.422;2022-12-18T05:02:16;61.27;;;18.70;;
17052;SDS011;8643;48.824;11.422;2022-12-18T05:04:46;58.70;;;17.53;;
17052;SDS011;8643;48.824;11.422;2022-12-18T05:07:14;72.40;;;21.60;;
17052;SDS011;8643;48.824;11.422;2022-12-18T05:09:43;69.00;;;18.30;;
17052;SDS011;8643;48.824;11.422;2022-12-18T05:12:11;63.73;;;18.53;;
17052;SDS011;8643;48.824;11.422;2022-12-18T05:14:40;67.23;;;17.90;;
17052;SDS011;8643;48.824;11.422;2022-12-18T05:17:09;63.60;;;18.57;;
17052;SDS011;8643;48.824;11.422;2022-12-18T05:19:37;74.07;;;19.33;;
17052;SDS011;8643;48.824;11.422;2022-12-18T05:22:08;62.40;;;20.57;;
17052;SDS011;8643;48.824;11.422;2022-12-18T05:24:37;71.03;;;19.93;;
17052;SDS011;8643;48.824;11.422;2022-12-18T05:27:05;67.27;;;18.70;;
17052;SDS011;8643;48.824;11.422;2022-12-18T05:29:34;63.20;;;18.53;;
17052;SDS011;8643;48.824;11.422;2022-12-18T05:32:02;62.47;;;17.90;;
17052;SDS011;8643;48.824;11.422;2022-12-18T05:34:31;61.83;;;18.13;;
17052;SDS011;8643;48.824;11.422;2022-12-18T05:37:00;61.10;;;18.37;;
17052;SDS011;8643;48.824;11.422;2022-12-18T05:39:30;55.83;;;17.87;;
17052;SDS011;8643;48.824;11.422;2022-12-18T05:41:58;52.00;;;17.47;;
17052;SDS011;8643;48.824;11.422;2022-12-18T05:44:27;57.70;;;18.20;;
17052;SDS011;8643;48.824;11.422;2022-12-18T05:46:55;60.93;;;18.60;;
17052;SDS011;8643;48.824;11.422;2022-12-18T05:49:24;62.43;;;17.80;;
17052;SDS011;8643;48.824;11.422;2022-12-18T05:51:53;56.77;;;17.40;;
17052;SDS011;8643;48.824;11.422;2022-12-18T05:54:22;58.97;;;18.00;;
17052;SDS011;8643;48.824;11.422;2022-12-18T05:56:51;61.13;;;17.23;;
17052;SDS011;8643;48.824;11.422;2022-12-18T05:59:20;63.23;;;19.47;;
17052;SDS011;8643;48.824;11.422;2022-12-18T06:01:48;58.70;;;18.40;;
17052;SDS011;8643;48.824;11.422;2022-12-18T06:04:18;57.27;;;16.90;;
17052;SDS011;8643;48.824;11.422;2022-12-18T06:06:46;59.53;;;17.37;;
17052;SDS011;8643;48.824;11.422;2022-12-18T06:09:15;57.63;;;17.33;;
17052;SDS011;8643;48.824;11.422;2022-12-18T06:11:43;61.87;;;17.50;;
17052;SDS011;8643;48.824;11.422;2022-12-18T06:14:13;51.87;;;15.80;;
17052;SDS011;8643;48.824;11.422;2022-12-18T06:16:43;57.33;;;17.17;;
17052;SDS011;8643;48.824;11.422;2022-12-18T06:19:13;51.17;;;16.43;;
17052;SDS011;8643;48.824;11.422;2022-12-18T06:21:43;61.57;;;18.03;;
17052;SDS011;8643;48.824;11.422;2022-12-18T06:24:12;53.03;;;16.40;;
17052;SDS011;8643;48.824;11.422;2022-12-18T06:26:40;57.23;;;16.87;;
17052;SDS011;8643;48.824;11.422;2022-12-18T06:29:09;52.20;;;16.10;;
17052;SDS011;8643;48.824;11.422;2022-12-18T06:31:39;57.67;;;17.03;;
17052;SDS011;8643;48.824;11.422;2022-12-18T06:34:07;51.10;;;15.53;;
17052;SDS011;8643;48.824;11.422;2022-12-18T06:36:36;47.90;;;16.53;;
17052;SDS011;8643;48.824;11.422;2022-12-18T06:39:05;53.20;;;17.90;;
17052;SDS011;8643;48.824;11.422;2022-12-18T06:41:34;50.43;;;15.47;;
17052;SDS011;8643;48.824;11.422;2022-12-18T06:44:04;52.43;;;16.47;;
17052;SDS011;8643;48.824;11.422;2022-12-18T06:46:33;47.10;;;15.33;;
17052;SDS011;8643;48.824;11.422;2022-12-18T06:49:03;62.10;;;17.17;;
17052;SDS011;8643;48.824;11.422;2022-12-18T06:51:31;50.67;;;16.07;;
17052;SDS011;8643;48.824;11.422;2022-12-18T06:54:00;46.67;;;15.63;;
17052;SDS011;8643;48.824;11.422;2022-12-18T06:56:29;56.20;;;16.47;;
17052;SDS011;8643;48.824;11.422;2022-12-18T06:58:58;53.10;;;16.43;;
17052;SDS011;8643;48.824;11.422;2022-12-18T07:01:26;54.93;;;16.87;;
17052;SDS011;8643;48.824;11.422;2022-12-18T07:03:55;51.87;;;16.50;;
17052;SDS011;8643;48.824;11.422;2022-12-18T07:06:26;64.93;;;18.97;;
17052;SDS011;8643;48.824;11.422;2022-12-18T07:08:55;52.17;;;18.03;;
17052;SDS011;8643;48.824;11.422;2022-12-18T07:11:23;47.53;;;16.13;;
17052;SDS011;8643;48.824;11.422;2022-12-18T07:13:52;45.53;;;17.20;;
17052;SDS011;8643;48.824;11.422;2022-12-18T07:16:21;53.50;;;14.80;;
17052;SDS011;8643;48.824;11.422;2022-12-18T07:18:51;53.60;;;17.00;;
17052;SDS011;8643;48.824;11.422;2022-12-18T07:21:20;60.83;;;17.07;;
17052;SDS011;8643;48.824;11.422;2022-12-18T07:23:51;51.37;;;17.27;;
17052;SDS011;8643;48.824;11.422;2022-12-18T07:26:20;47.60;;;15.43;;
17052;SDS011;8643;48.824;11.422;2022-12-18T07:28:49;51.00;;;15.73;;
17052;SDS011;8643;48.824;11.422;2022-12-18T07:31:18;55.03;;;16.77;;
17052;SDS011;8643;48.824;11.422;2022-12-18T07:33:49;51.77;;;16.80;;
17052;SDS011;8643;48.824;11.422;2022-12-18T07:36:18;46.63;;;15.03;;
17052;SDS011;8643;48.824;11.422;2022-12-18T07:38:52;50.33;;;16.60;;
17052;SDS011;8643;48.824;11.422;2022-12-18T07:41:20;52.13;;;15.60;;
17052;SDS011;8643;48.824;11.422;2022-12-18T07:43:49;52.53;;;17.20;;
17052;SDS011;8643;48.824;11.422;2022-12-18T07:46:19;52.03;;;17.33;;
17052;SDS011;8643;48.824;11.422;2022-12-18T07:48:47;55.43;;;17.27;;
17052;SDS011;8643;48.824;11.422;2022-12-18T07:51:16;54.23;;;17.33;;
17052;SDS011;8643;48.824;11.422;2022-12-18T07:53:46;47.03;;;15.03;;
17052;SDS011;8643;48.824;11.422;2022-12-18T07:56:19;56.43;;;17.57;;
17052;SDS011;8643;48.824;11.422;2022-12-18T07:58:54;57.60;;;16.83;;
17052;SDS011;8643;48.824;11.422;2022-12-18T08:01:24;56.53;;;18.90;;
17052;SDS011;8643;48.824;11.422;2022-12-18T08:03:53;58.90;;;18.70;;
17052;SDS011;8643;48.824;11.422;2022-12-18T08:06:22;54.70;;;17.53;;
17052;SDS011;8643;48.824;11.422;2022-12-18T08:08:51;53.23;;;19.00;;
17052;SDS011;8643;48.824;11.422;2022-12-18T08:11:21;54.27;;;16.60;;
17052;SDS011;8643;48.824;11.422;2022-12-18T08:13:52;47.57;;;15.73;;
17052;SDS011;8643;48.824;11.422;2022-12-18T08:16:21;49.03;;;15.67;;
17052;SDS011;8643;48.824;11.422;2022-12-18T08:18:51;49.93;;;17.70;;
17052;SDS011;8643;48.824;11.422;2022-12-18T08:21:21;55.57;;;16.53;;
17052;SDS011;8643;48.824;11.422;2022-12-18T08:23:53;49.23;;;15.57;;
17052;SDS011;8643;48.824;11.422;2022-12-18T08:26:24;42.60;;;15.40;;
17052;SDS011;8643;48.824;11.422;2022-12-18T08:28:55;49.07;;;16.50;;
17052;SDS011;8643;48.824;11.422;2022-12-18T08:31:26;46.07;;;14.57;;
17052;SDS011;8643;48.824;11.422;2022-12-18T08:33:57;52.20;;;16.47;;
17052;SDS011;8643;48.824;11.422;2022-12-18T08:36:25;54.10;;;16.93;;
17052;SDS011;8643;48.824;11.422;2022-12-18T08:38:53;48.37;;;16.47;;
17052;SDS011;8643;48.824;11.422;2022-12-18T08:41:25;47.70;;;15.87;;
17052;SDS011;8643;48.824;11.422;2022-12-18T08:43:54;44.17;;;16.37;;
17052;SDS011;8643;48.824;11.422;2022-12-18T08:46:41;50.93;;;16.53;;
17052;SDS011;8643;48.824;11.422;2022-12-18T08:49:11;45.50;;;15.97;;
17052;SDS011;8643;48.824;11.422;2022-12-18T08:51:40;54.93;;;16.63;;
17052;SDS011;8643;48.824;11.422;2022-12-18T08:54:09;49.67;;;17.47;;
17052;SDS011;8643;48.824;11.422;2022-12-18T08:56:41;51.07;;;16.13;;
17052;SDS011;8643;48.824;11.422;2022-12-18T08:59:09;51.80;;;17.67;;
17052;SDS011;8643;48.824;11.422;2022-12-18T09:01:45;50.77;;;16.40;;
17052;SDS011;8643;48.824;11.422;2022-12-18T09:04:15;51.10;;;17.77;;
17052;SDS011;8643;48.824;11.422;2022-12-18T09:06:43;48.87;;;17.17;;
17052;SDS011;8643;48.824;11.422;2022-12-18T09:09:12;56.60;;;18.03;;
17052;SDS011;8643;48.824;11.422;2022-12-18T09:11:42;46.00;;;15.90;;
17052;SDS011;8643;48.824;11.422;2022-12-18T09:14:10;47.07;;;17.10;;
17052;SDS011;8643;48.824;11.422;2022-12-18T09:16:39;52.83;;;16.90;;
17052;SDS011;8643;48.824;11.422;2022-12-18T09:19:08;49.30;;;16.60;;
17052;SDS011;8643;48.824;11.422;2022-12-18T09:21:37;50.83;;;17.23;;
17052;SDS011;8643;48.824;11.422;2022-12-18T09:24:13;47.97;;;15.60;;
17052;SDS011;8643;48.824;11.422;2022-12-18T09:26:43;47.27;;;16.47;;
17052;SDS011;8643;48.824;11.422;2022-12-18T09:29:13;42.17;;;15.60;;
17052;SDS011;8643;48.824;11.422;2022-12-18T09:31:44;71.80;;;26.27;;
17052;SDS011;8643;48.824;11.422;2022-12-18T09:34:13;44.80;;;16.30;;
17052;SDS011;8643;48.824;11.422;2022-12-18T09:36:42;45.27;;;14.47;;
17052;SDS011;8643;48.824;11.422;2022-12-18T09:39:12;44.93;;;16.03;;
17052;SDS011;8643;48.824;11.422;2022-12-18T09:41:45;44.23;;;15.97;;
17052;SDS011;8643;48.824;11.422;2022-12-18T09:44:21;44.53;;;15.37;;
17052;SDS011;8643;48.824;11.422;2022-12-18T09:47:03;45.13;;;14.80;;
17052;SDS011;8643;48.824;11.422;2022-12-18T09:49:38;48.70;;;16.57;;
17052;SDS011;8643;48.824;11.422;2022-12-18T09:52:12;50.70;;;17.43;;
17052;SDS011;8643;48.824;11.422;2022-12-18T09:54:50;44.93;;;15.57;;
17052;SDS011;8643;48.824;11.422;2022-12-18T09:57:24;42.80;;;16.73;;
17052;SDS011;8643;48.824;11.422;2022-12-18T09:59:54;46.07;;;16.43;;
17052;SDS011;8643;48.824;11.422;2022-12-18T10:02:36;45.60;;;15.67;;
17052;SDS011;8643;48.824;11.422;2022-12-18T10:05:06;46.00;;;16.27;;
17052;SDS011;8643;48.824;11.422;2022-12-18T10:07:47;47.87;;;17.03;;
17052;SDS011;8643;48.824;11.422;2022-12-18T10:10:32;45.17;;;16.63;;
17052;SDS011;8643;48.824;11.422;2022-12-18T10:13:15;48.53;;;16.73;;
17052;SDS011;8643;48.824;11.422;2022-12-18T10:15:54;45.50;;;16.47;;
17052;SDS011;8643;48.824;11.422;2022-12-18T10:18:41;46.77;;;16.63;;
17052;SDS011;8643;48.824;11.422;2022-12-18T10:21:28;49.33;;;16.63;;
17052;SDS011;8643;48.824;11.422;2022-12-18T10:24:08;51.43;;;17.80;;
17052;SDS011;8643;48.824;11.422;2022-12-18T10:26:48;46.70;;;16.20;;
17052;SDS011;8643;48.824;11.422;2022-12-18T10:29:18;44.20;;;15.63;;
17052;SDS011;8643;48.824;11.422;2022-12-18T10:31:47;45.43;;;16.37;;
17052;SDS011;8643;48.824;11.422;2022-12-18T10:34:16;44.77;;;17.70;;
17052;SDS011;8643;48.824;11.422;2022-12-18T10:36:44;53.00;;;17.97;;
17052;SDS011;8643;48.824;11.422;2022-12-18T10:39:16;44.57;;;16.50;;
17052;SDS011;8643;48.824;11.422;2022-12-18T10:41:47;45.03;;;17.10;;
17052;SDS011;8643;48.824;11.422;2022-12-18T10:44:18;43.43;;;16.37;;
17052;SDS011;8643;48.824;11.422;2022-12-18T10:46:49;44.40;;;16.73;;
17052;SDS011;8643;48.824;11.422;2022-12-18T10:49:23;44.57;;;16.93;;
17052;SDS011;8643;48.824;11.422;2022-12-18T10:52:04;51.60;;;17.63;;
17052;SDS011;8643;48.824;11.422;2022-12-18T10:54:45;44.47;;;16.13;;
17052;SDS011;8643;48.824;11.422;2022-12-18T10:57:17;52.77;;;18.07;;
17052;SDS011;8643;48.824;11.422;2022-12-18T11:00:01;47.57;;;17.10;;
17052;SDS011;8643;48.824;11.422;2022-12-18T11:02:50;45.13;;;16.50;;
17052;SDS011;8643;48.824;11.422;2022-12-18T11:05:22;42.20;;;16.67;;
17052;SDS011;8643;48.824;11.422;2022-12-18T11:07:58;45.33;;;16.17;;
17052;SDS011;8643;48.824;11.422;2022-12-18T11:10:29;43.10;;;16.63;;
17052;SDS011;8643;48.824;11.422;2022-12-18T11:13:09;43.90;;;16.63;;
17052;SDS011;8643;48.824;11.422;2022-12-18T11:15:41;49.33;;;17.63;;
17052;SDS011;8643;48.824;11.422;2022-12-18T11:18:17;42.87;;;17.27;;
17052;SDS011;8643;48.824;11.422;2022-12-18T11:20:53;41.37;;;16.27;;
17052;SDS011;8643;48.824;11.422;2022-12-18T11:23:25;41.10;;;15.60;;
17052;SDS011;8643;48.824;11.422;2022-12-18T11:25:55;45.67;;;17.00;;
17052;SDS011;8643;48.824;11.422;2022-12-18T11:28:28;47.47;;;17.67;;
17052;SDS011;8643;48.824;11.422;2022-12-18T11:31:23;41.03;;;16.03;;
17052;SDS011;8643;48.824;11.422;2022-12-18T11:34:01;44.80;;;16.60;;
17052;SDS011;8643;48.824;11.422;2022-12-18T11:36:54;42.47;;;15.47;;
17052;SDS011;8643;48.824;11.422;2022-12-18T11:39:29;46.07;;;16.07;;
17052;SDS011;8643;48.824;11.422;2022-12-18T11:42:05;41.43;;;16.77;;
17052;SDS011;8643;48.824;11.422;2022-12-18T11:44:46;46.30;;;16.93;;
17052;SDS011;8643;48.824;11.422;2022-12-18T11:47:21;46.93;;;16.50;;
17052;SDS011;8643;48.824;11.422;2022-12-18T11:49:59;43.93;;;15.57;;
17052;SDS011;8643;48.824;11.422;2022-12-18T11:52:31;42.00;;;17.13;;
17052;SDS011;8643;48.824;11.422;2022-12-18T11:55:09;40.87;;;16.07;;
17052;SDS011;8643;48.824;11.422;2022-12-18T11:57:43;44.60;;;16.03;;
17052;SDS011;8643;48.824;11.422;2022-12-18T12:00:25;46.20;;;16.17;;
17052;SDS011;8643;48.824;11.422;2022-12-18T12:03:02;48.90;;;16.47;;
17052;SDS011;8643;48.824;11.422;2022-12-18T12:05:58;46.63;;;16.63;;
17052;SDS011;8643;48.824;11.422;2022-12-18T12:08:44;41.63;;;16.17;;
17052;SDS011;8643;48.824;11.422;2022-12-18T12:11:39;41.33;;;15.10;;
17052;SDS011;8643;48.824;11.422;2022-12-18T12:17:16;45.10;;;15.53;;
17052;SDS011;8643;48.824;11.422;2022-12-18T12:20:00;46.13;;;15.83;;
17052;SDS011;8643;48.824;11.422;2022-12-18T12:22:41;41.33;;;15.80;;
17052;SDS011;8643;48.824;11.422;2022-12-18T12:25:27;40.83;;;14.47;;
17052;SDS011;8643;48.824;11.422;2022-12-18T12:28:10;43.80;;;14.53;;
17052;SDS011;8643;48.824;11.422;2022-12-18T12:30:48;47.73;;;17.47;;
17052;SDS011;8643;48.824;11.422;2022-12-18T12:33:31;45.83;;;16.83;;
17052;SDS011;8643;48.824;11.422;2022-12-18T12:36:15;49.43;;;17.60;;
17052;SDS011;8643;48.824;11.422;2022-12-18T12:38:57;47.17;;;16.17;;
17052;SDS011;8643;48.824;11.422;2022-12-18T12:41:35;42.43;;;16.80;;
17052;SDS011;8643;48.824;11.422;2022-12-18T12:44:33;43.83;;;16.77;;
17052;SDS011;8643;48.824;11.422;2022-12-18T12:47:14;43.37;;;15.27;;
17052;SDS011;8643;48.824;11.422;2022-12-18T12:49:49;41.07;;;16.30;;
17052;SDS011;8643;48.824;11.422;2022-12-18T12:52:23;44.73;;;16.13;;
17052;SDS011;8643;48.824;11.422;2022-12-18T12:55:01;46.33;;;16.77;;
17052;SDS011;8643;48.824;11.422;2022-12-18T12:57:40;39.83;;;15.57;;
17052;SDS011;8643;48.824;11.422;2022-12-18T13:00:16;41.47;;;15.37;;
17052;SDS011;8643;48.824;11.422;2022-12-18T13:02:50;43.93;;;15.53;;
17052;SDS011;8643;48.824;11.422;2022-12-18T13:05:24;41.80;;;16.70;;
17052;SDS011;8643;48.824;11.422;2022-12-18T13:08:02;42.27;;;15.93;;
17052;SDS011;8643;48.824;11.422;2022-12-18T13:10:35;40.57;;;15.83;;
17052;SDS011;8643;48.824;11.422;2022-12-18T13:13:07;39.17;;;16.40;;
17052;SDS011;8643;48.824;11.422;2022-12-18T13:15:37;39.87;;;15.60;;
17052;SDS011;8643;48.824;11.422;2022-12-18T13:21:02;39.10;;;15.07;;
17052;SDS011;8643;48.824;11.422;2022-12-18T13:23:39;40.97;;;15.07;;
17052;SDS011;8643;48.824;11.422;2022-12-18T13:29:02;38.67;;;15.07;;
17052;SDS011;8643;48.824;11.422;2022-12-18T13:34:29;36.67;;;14.50;;
17052;SDS011;8643;48.824;11.422;2022-12-18T13:43:27;34.93;;;13.17;;
17052;SDS011;8643;48.824;11.422;2022-12-18T13:46:02;41.27;;;16.60;;
17052;SDS011;8643;48.824;11.422;2022-12-18T13:48:52;35.87;;;14.03;;
17052;SDS011;8643;48.824;11.422;2022-12-18T13:51:24;38.27;;;14.23;;
17052;SDS011;8643;48.824;11.422;2022-12-18T13:53:54;33.63;;;14.30;;
17052;SDS011;8643;48.824;11.422;2022-12-18T13:56:27;39.33;;;14.17;;
17052;SDS011;8643;48.824;11.422;2022-12-18T13:59:05;35.07;;;14.47;;
17052;SDS011;8643;48.824;11.422;2022-12-18T14:01:42;35.23;;;14.20;;
17052;SDS011;8643;48.824;11.422;2022-12-18T14:04:18;40.00;;;14.73;;
17052;SDS011;8643;48.824;11.422;2022-12-18T14:06:51;34.73;;;14.47;;
17052;SDS011;8643;48.824;11.422;2022-12-18T14:09:26;41.53;;;15.20;;
17052;SDS011;8643;48.824;11.422;2022-12-18T14:12:00;34.27;;;13.83;;
17052;SDS011;8643;48.824;11.422;2022-12-18T14:14:47;43.80;;;15.67;;
17052;SDS011;8643;48.824;11.422;2022-12-18T14:17:20;39.60;;;15.00;;
17052;SDS011;8643;48.824;11.422;2022-12-18T14:19:50;40.30;;;14.37;;
17052;SDS011;8643;48.824;11.422;2022-12-18T14:22:20;34.57;;;14.40;;
17052;SDS011;8643;48.824;11.422;2022-12-18T14:25:05;33.90;;;14.57;;
17052;SDS011;8643;48.824;11.422;2022-12-18T14:27:45;38.13;;;14.77;;
17052;SDS011;8643;48.824;11.422;2022-12-18T14:30:27;36.77;;;13.97;;
17052;SDS011;8643;48.824;11.422;2022-12-18T14:33:01;33.00;;;14.47;;
17052;SDS011;8643;48.824;11.422;2022-12-18T14:35:31;37.23;;;14.27;;
17052;SDS011;8643;48.824;11.422;2022-12-18T14:38:18;37.63;;;13.90;;
17052;SDS011;8643;48.824;11.422;2022-12-18T14:40:54;37.23;;;15.40;;
17052;SDS011;8643;48.824;11.422;2022-12-18T14:43:28;41.70;;;14.87;;
17052;SDS011;8643;48.824;11.422;2022-12-18T14:46:00;39.87;;;15.33;;
17052;SDS011;8643;48.824;11.422;2022-12-18T14:48:37;35.23;;;13.67;;
17052;SDS011;8643;48.824;11.422;2022-12-18T14:51:14;39.47;;;14.47;;
17052;SDS011;8643;48.824;11.422;2022-12-18T14:53:46;40.07;;;15.13;;
17052;SDS011;8643;48.824;11.422;2022-12-18T14:56:21;37.07;;;14.53;;
17052;SDS011;8643;48.824;11.422;2022-12-18T14:58:54;41.93;;;16.00;;
17052;SDS011;8643;48.824;11.422;2022-12-18T15:01:26;38.30;;;14.97;;
17052;SDS011;8643;48.824;11.422;2022-12-18T15:03:58;38.57;;;15.63;;
17052;SDS011;8643;48.824;11.422;2022-12-18T15:06:30;37.30;;;16.03;;
17052;SDS011;8643;48.824;11.422;2022-12-18T15:09:03;41.53;;;16.00;;
17052;SDS011;8643;48.824;11.422;2022-12-18T15:11:49;36.70;;;14.53;;
17052;SDS011;8643;48.824;11.422;2022-12-18T15:14:33;37.00;;;15.20;;